Архив погоды в Надыме

Метеограмма Надым
Четверг, 16 Августа
Время местн. Темп Ветер Видим Явления Облачность нижн/средн/верх Атм. давл. Влжн Точка росы ВНГО R Сост. почвы Tg s
Напр Скр Прв ур.ст ур.м изм
20:00 +12.7° З 1 - 10 км - облачно с прояснениями 756 757 +0.1 76% +8.6° 1.5 км 0 - - -
17:00 +16.7° З 1 - 10 км - преимущественно облачно 756 757 +0.1 50% +6.1° 1.5 км - - - -
14:00 +19.2° З 2 - 10 км - облачно 756 757 +0.2 40% +5.4° 1.5 км - - - -
11:00 +15.9° З,Ю-З 2 - 10 км - переменная облачность 756 757 +0.1 54% +6.6° 1.5 км - - - -
08:00 +12.7° штиль 0 - 10 км - облачно с прояснениями 756 757 +0.2 82% +9.7° - 0 - - -
05:00 +10.1° штиль 0 - 10 км - переменная облачность 756 757 +0.6 97% +9.6° - - - - -
02:00 +11.2° штиль 0 - 10 км - облачно 755 756 +0.2 95% +10.4° более 2.5 км - - - -
Среда, 15 Августа
Время местн. Темп Ветер Видим Явления Облачность нижн/средн/верх Атм. давл. Влжн Точка росы ВНГО R Сост. почвы Tg s
Напр Скр Прв ур.ст ур.м изм
23:00 +12.4° З 1 - 10 км дождь {ливневые осадки} облачно 755 756 +0.1 95% +11.6° - - - - -
20:00 +13.9° штиль 0 - 10 км слабый ливневый дождь облачно 755 756 0 90% +12.3° 1 км 0 - - -
17:00 +17.3° С,С-З 1 - 10 км - облачно 755 756 +0.1 65% +10.7° 1.5 км - - - -
14:00 +21.5° З 1 - 10 км - облачно с прояснениями 755 756 +0.1 47% +9.6° 1.5 км - - - -
11:00 +18.7° Ю-З 1 - 10 км - облачно с прояснениями 755 756 +0.3 57% +10° 1 км - - - -
08:00 +15.7° З 1 - 10 км - переменная облачность 754 756 +1 65% +9.2° - 0 - - -
05:00 +10.5° Ю-З 1 - 20 км - переменная облачность 753 755 +1.2 87% +8.5° более 2.5 км - - - -
02:00 +12.4° Ю,Ю-З 2 - 10 км - ясно 752 753 +1 80% +9° более 2.5 км - - - -
Вторник, 14 Августа
Время местн. Темп Ветер Видим Явления Облачность нижн/средн/верх Атм. давл. Влжн Точка росы ВНГО R Сост. почвы Tg s
Напр Скр Прв ур.ст ур.м изм
23:00 +15.1° Ю,Ю-З 2 - 10 км - ясно 751 752 +1.6 71% +9.8° более 2.5 км - - - -
20:00 +19.4° Ю,Ю-З 2 - 20 км - переменная облачность 750 751 +1.7 53% +9.5° 1.5 км 3 - - -
17:00 +24.1° Ю,Ю-З 4 10 20 км небо без изменений {гроза, ливневые осадки} переменная облачность 748 749 +0.2 49% +12.6° 1.5 км - - - -
14:00 +15.7° Ю 3 - 4 км слабая или умеренная гроза с осадками облачно с прояснениями 748 749 -0.4 94% +14.8° 1 км - - - -
11:00 +19.9° Ю 4 - 10 км - облачно 748 749 -0.4 78% +15.9° 600 м - - - -
08:00 +17.4° Ю 3 - 10 км - облачно 748 749 -0.3 83% +14.4° 600 м 0 Влажная (без луж) - -
05:00 +16.6° Ю,Ю-В 4 - 10 км - облачно 748 750 -0.9 79% +13° 1.5 км - - - -
02:00 +16.1° Ю,Ю-В 4 - 10 км - облачно с прояснениями 749 750 -0.8 79% +12.4° - - - - -
Понедельник, 13 Августа
Время местн. Темп Ветер Видим Явления Облачность нижн/средн/верх Атм. давл. Влжн Точка росы ВНГО R Сост. почвы Tg s
Напр Скр Прв ур.ст ур.м изм
23:00 +16° Ю,Ю-В 3 - 10 км - облачно с прояснениями 750 751 -0.2 76% +11.7° более 2.5 км - - - -
20:00 +17.1° Ю 2 - 10 км - облачно с прояснениями 750 751 +0.2 70% +11.6° - 0.8 - - -
17:00 +19.4° Ю 3 10 20 км небо без изменений {ливневые осадки} переменная облачность 750 751 -0.8 54% +9.9° более 2.5 км - - - -